Time;durP1;ratioP1;P1;durP2;ratioP2;P2;SDS_P1;SDS_P2;PMS_P1;PMS_P2;Temp;Humidity;BMP_temperature;BMP_pressure;BME280_temperature;BME280_humidity;BME280_pressure;Samples;Min_cycle;Max_cycle;Signal;HPM_P1;HPM_P2
2021/04/26 00:00:18;;;;;;;11.10;4.97;;;16.30;60.10;;;;;;5013150;28;20466;-71
2021/04/26 00:02:44;;;;;;;7.90;4.65;;;16.30;60.90;;;;;;5013220;28;20034;-71
2021/04/26 00:05:13;;;;;;;7.97;4.30;;;16.30;60.80;;;;;;5013341;28;20032;-71
2021/04/26 00:07:39;;;;;;;7.28;4.60;;;16.30;61.00;;;;;;5013118;28;20027;-71
2021/04/26 00:10:05;;;;;;;10.10;4.20;;;16.30;61.00;;;;;;5013282;28;20462;-72
2021/04/26 00:12:30;;;;;;;8.07;4.00;;;16.30;59.60;;;;;;5013228;28;20045;-71
2021/04/26 00:14:56;;;;;;;9.57;4.50;;;16.30;58.60;;;;;;5013138;28;20473;-71
2021/04/26 00:17:22;;;;;;;6.88;4.35;;;16.30;58.40;;;;;;5013027;28;20061;-71
2021/04/26 00:19:48;;;;;;;8.43;4.20;;;16.40;57.70;;;;;;5013201;28;20029;-71
2021/04/26 00:22:14;;;;;;;7.35;3.92;;;16.40;57.60;;;;;;5013052;28;20080;-71
2021/04/26 00:24:41;;;;;;;7.18;3.67;;;16.40;56.10;;;;;;5013275;28;20058;-72
2021/04/26 00:27:07;;;;;;;7.35;3.60;;;16.40;55.20;;;;;;5013315;28;20424;-71
2021/04/26 00:29:33;;;;;;;6.40;3.80;;;16.50;55.00;;;;;;5013297;28;20049;-71
2021/04/26 00:31:59;;;;;;;9.45;3.58;;;16.50;55.40;;;;;;5014617;28;20049;-71
2021/04/26 00:34:25;;;;;;;6.70;3.88;;;16.60;54.50;;;;;;5017028;28;20490;-71
2021/04/26 00:36:50;;;;;;;7.35;3.92;;;16.50;54.30;;;;;;5017025;28;20022;-71
2021/04/26 00:39:17;;;;;;;8.13;3.92;;;16.60;54.40;;;;;;5016851;28;20446;-72
2021/04/26 00:41:42;;;;;;;8.60;3.92;;;16.60;54.40;;;;;;5016729;28;20022;-72
2021/04/26 00:44:08;;;;;;;8.80;4.50;;;16.60;53.80;;;;;;5016889;28;20500;-71
2021/04/26 00:46:34;;;;;;;7.50;3.65;;;16.60;53.40;;;;;;5016726;28;20192;-73
2021/04/26 00:48:59;;;;;;;8.82;4.25;;;16.60;53.60;;;;;;5016562;28;20581;-71
2021/04/26 00:51:25;;;;;;;9.07;4.32;;;16.60;53.50;;;;;;5016571;28;20022;-71
2021/04/26 00:53:51;;;;;;;12.23;4.13;;;16.60;53.50;;;;;;5016621;28;20041;-71
2021/04/26 00:56:17;;;;;;;6.15;3.92;;;16.60;52.90;;;;;;5016419;28;20053;-71
2021/04/26 00:58:43;;;;;;;7.75;3.92;;;16.60;52.60;;;;;;5016619;28;20560;-71
2021/04/26 01:01:09;;;;;;;6.25;3.95;;;;;;;;;;5016609;28;20032;-71
2021/04/26 01:03:36;;;;;;;6.93;4.10;;;16.50;51.40;;;;;;5014478;28;20033;-71
2021/04/26 01:06:02;;;;;;;9.38;4.82;;;16.50;52.80;;;;;;5013638;28;20482;-71
2021/04/26 01:08:28;;;;;;;9.75;4.85;;;16.50;52.50;;;;;;5013664;28;20037;-70
2021/04/26 01:10:55;;;;;;;8.98;3.80;;;16.60;52.20;;;;;;5015859;28;20101;-71
2021/04/26 01:13:34;;;;;;;9.35;4.30;;;16.50;52.00;;;;;;5016232;28;20044;-71
2021/04/26 01:16:19;;;;;;;9.25;4.75;;;16.50;51.60;;;;;;5015069;28;20037;-71
2021/04/26 01:19:15;;;;;;;10.45;4.40;;;16.50;51.50;;;;;;5015702;28;20041;-70
2021/04/26 01:22:02;;;;;;;6.95;4.13;;;16.50;51.70;;;;;;5015928;28;20022;-71
2021/04/26 01:24:46;;;;;;;11.20;5.20;;;16.40;51.50;;;;;;5016064;28;20032;-71
2021/04/26 01:27:42;;;;;;;9.63;5.00;;;16.40;51.00;;;;;;5014252;28;20386;-70
2021/04/26 01:30:21;;;;;;;8.35;4.40;;;16.40;51.20;;;;;;5015728;28;20026;-71
2021/04/26 01:32:59;;;;;;;10.75;4.70;;;16.40;51.60;;;;;;5015360;28;20030;-71
2021/04/26 01:35:27;;;;;;;12.30;5.05;;;16.40;51.00;;;;;;5015782;28;20021;-70
2021/04/26 01:37:59;;;;;;;7.78;4.63;;;16.40;50.60;;;;;;5015683;28;20037;-71
2021/04/26 01:40:26;;;;;;;9.88;4.60;;;16.40;49.70;;;;;;5015451;28;20128;-71
2021/04/26 01:42:57;;;;;;;10.40;4.18;;;16.40;50.10;;;;;;5014460;28;20080;-71
2021/04/26 01:45:24;;;;;;;6.80;4.53;;;16.50;50.30;;;;;;5015326;28;20075;-70
2021/04/26 01:47:55;;;;;;;12.10;4.97;;;16.40;49.50;;;;;;5015274;28;20022;-72
2021/04/26 01:50:22;;;;;;;10.60;4.60;;;16.40;49.70;;;;;;5015354;28;20083;-70
2021/04/26 01:52:48;;;;;;;8.63;4.65;;;16.40;49.10;;;;;;5015621;28;20022;-71
2021/04/26 01:55:14;;;;;;;11.82;4.97;;;16.30;49.30;;;;;;5015141;28;20041;-71
2021/04/26 01:57:42;;;;;;;7.35;5.07;;;16.30;49.10;;;;;;5015114;28;20033;-70
2021/04/26 02:00:17;;;;;;;9.18;4.45;;;16.30;49.40;;;;;;5015374;28;20069;-70
2021/04/26 02:02:45;;;;;;;11.73;4.82;;;16.30;48.50;;;;;;5014034;28;20092;-70
2021/04/26 02:05:13;;;;;;;12.93;5.10;;;16.30;47.90;;;;;;5014056;28;20028;-71
2021/04/26 02:07:42;;;;;;;9.40;4.40;;;16.30;48.20;;;;;;5015599;28;20421;-71
2021/04/26 02:10:10;;;;;;;6.63;4.03;;;16.30;48.00;;;;;;5014969;28;20025;-71
2021/04/26 02:12:37;;;;;;;10.10;5.25;;;16.30;48.00;;;;;;5015755;28;20033;-71
2021/04/26 02:15:04;;;;;;;10.73;4.85;;;16.20;48.10;;;;;;5015150;28;20018;-71
2021/04/26 02:17:30;;;;;;;10.98;5.07;;;16.20;47.90;;;;;;5014982;28;20109;-71
2021/04/26 02:19:56;;;;;;;10.40;5.07;;;16.10;47.70;;;;;;5015106;28;20053;-70
2021/04/26 02:22:22;;;;;;;12.68;5.50;;;16.10;47.80;;;;;;5014762;28;20065;-71
2021/04/26 02:24:47;;;;;;;7.93;4.78;;;16.10;48.10;;;;;;5015044;28;20018;-71
2021/04/26 02:27:14;;;;;;;14.18;4.82;;;16.10;47.90;;;;;;5014809;28;20033;-71
2021/04/26 02:29:40;;;;;;;9.32;4.80;;;16.10;48.60;;;;;;5014990;28;20474;-72
2021/04/26 02:32:09;;;;;;;8.05;4.38;;;16.00;47.80;;;;;;5014885;28;20037;-70
2021/04/26 02:34:42;;;;;;;8.77;4.50;;;16.00;47.50;;;;;;5014907;28;20430;-71
2021/04/26 02:37:33;;;;;;;6.80;4.90;;;16.00;47.70;;;;;;5014479;28;20109;-71
2021/04/26 02:40:11;;;;;;;8.15;4.65;;;16.00;47.60;;;;;;5014493;28;20493;-71
2021/04/26 02:42:46;;;;;;;8.98;4.97;;;16.00;47.20;;;;;;5014787;28;20029;-70
2021/04/26 02:45:18;;;;;;;10.85;4.40;;;16.00;47.10;;;;;;5014601;28;20037;-70
2021/04/26 02:47:44;;;;;;;7.60;4.07;;;16.00;47.00;;;;;;5014523;28;20041;-71
2021/04/26 02:50:16;;;;;;;7.85;4.60;;;16.00;47.10;;;;;;5012991;28;20022;-71
2021/04/26 02:52:44;;;;;;;10.32;4.53;;;15.90;47.70;;;;;;5014471;28;20076;-71
2021/04/26 02:55:11;;;;;;;10.32;4.75;;;15.90;47.30;;;;;;5014366;28;20025;-71
2021/04/26 02:57:39;;;;;;;11.73;5.35;;;15.90;47.10;;;;;;5014250;28;20034;-71
2021/04/26 03:00:10;;;;;;;6.80;4.60;;;15.80;47.40;;;;;;5014206;28;20025;-71
2021/04/26 03:02:37;;;;;;;11.35;4.57;;;15.80;46.70;;;;;;5014160;28;20065;-71
2021/04/26 03:05:05;;;;;;;10.30;4.50;;;15.80;46.20;;;;;;5014190;28;20363;-72
2021/04/26 03:07:31;;;;;;;7.90;4.43;;;15.80;46.10;;;;;;5014325;28;20030;-71
2021/04/26 03:10:00;;;;;;;9.73;4.47;;;15.80;46.20;;;;;;5014075;28;20423;-70
2021/04/26 03:12:26;;;;;;;11.20;4.53;;;15.80;45.70;;;;;;5013912;28;20036;-71
2021/04/26 03:14:52;;;;;;;8.68;4.45;;;15.80;46.20;;;;;;5014160;28;20026;-71
2021/04/26 03:17:19;;;;;;;13.70;4.80;;;15.70;46.00;;;;;;5013876;28;20108;-71
2021/04/26 03:19:45;;;;;;;12.48;5.68;;;15.70;46.30;;;;;;5014246;28;20467;-71
2021/04/26 03:22:12;;;;;;;11.38;4.65;;;15.70;45.90;;;;;;5014006;28;20105;-71
2021/04/26 03:24:38;;;;;;;11.88;5.07;;;15.70;46.20;;;;;;5013944;28;20064;-71
2021/04/26 03:27:05;;;;;;;9.05;4.68;;;15.60;46.10;;;;;;5013993;28;20423;-71
2021/04/26 03:29:32;;;;;;;8.88;4.30;;;15.60;45.10;;;;;;5013740;28;20036;-70
2021/04/26 03:31:59;;;;;;;8.45;4.70;;;15.50;45.80;;;;;;5014224;28;20425;-71
2021/04/26 03:34:25;;;;;;;10.00;4.45;;;15.40;46.00;;;;;;5013658;28;20080;-70
2021/04/26 03:36:51;;;;;;;8.55;5.03;;;15.40;45.60;;;;;;5013597;28;20030;-71
2021/04/26 03:39:17;;;;;;;11.52;4.40;;;15.40;45.20;;;;;;5013785;28;20120;-71
2021/04/26 03:41:43;;;;;;;11.07;4.25;;;15.40;45.50;;;;;;5013844;28;20480;-70
2021/04/26 03:44:14;;;;;;;10.20;4.38;;;15.30;45.30;;;;;;5013602;28;20034;-70
2021/04/26 03:46:53;;;;;;;9.00;4.00;;;15.30;46.10;;;;;;5012732;28;20033;-70
2021/04/26 03:49:20;;;;;;;8.38;4.45;;;15.20;45.60;;;;;;5013624;28;20061;-71
2021/04/26 03:51:46;;;;;;;9.70;4.68;;;15.20;45.60;;;;;;5013578;28;20026;-71
2021/04/26 03:54:11;;;;;;;7.40;4.22;;;15.20;45.40;;;;;;5013337;28;20068;-71
2021/04/26 03:56:37;;;;;;;8.18;3.85;;;15.20;45.40;;;;;;5013157;28;20362;-71
2021/04/26 03:59:03;;;;;;;8.02;4.40;;;15.20;44.80;;;;;;5013371;28;20076;-71
2021/04/26 04:01:29;;;;;;;12.77;4.25;;;15.20;44.90;;;;;;5013841;28;20026;-70
2021/04/26 04:03:55;;;;;;;6.47;3.58;;;15.20;44.60;;;;;;5013427;28;20018;-71
2021/04/26 04:06:21;;;;;;;7.18;3.92;;;15.10;45.30;;;;;;5013790;28;20109;-71
2021/04/26 04:08:48;;;;;;;11.18;4.25;;;15.10;45.00;;;;;;5017323;28;20097;-71
2021/04/26 04:11:14;;;;;;;7.65;4.60;;;15.10;46.30;;;;;;5017694;28;20168;-71
2021/04/26 04:13:41;;;;;;;14.20;4.38;;;15.00;45.70;;;;;;5017392;28;20105;-71
2021/04/26 04:16:06;;;;;;;7.38;3.90;;;15.00;45.10;;;;;;5017424;28;20041;-71
2021/04/26 04:18:32;;;;;;;6.25;3.75;;;15.00;44.80;;;;;;5017142;28;20026;-71
2021/04/26 04:20:58;;;;;;;8.05;3.80;;;15.00;45.30;;;;;;5017191;28;20018;-71
2021/04/26 04:23:24;;;;;;;12.43;4.45;;;14.90;45.30;;;;;;5017621;28;20061;-71
2021/04/26 04:25:50;;;;;;;7.43;4.03;;;14.90;44.80;;;;;;5017339;28;20049;-71
2021/04/26 04:28:15;;;;;;;7.47;4.05;;;14.90;44.60;;;;;;5017255;28;20097;-71
2021/04/26 04:30:41;;;;;;;6.85;3.92;;;14.90;45.40;;;;;;5017208;28;20034;-71
2021/04/26 04:33:07;;;;;;;15.90;4.28;;;14.90;44.40;;;;;;5017212;28;20378;-71
2021/04/26 04:35:33;;;;;;;12.52;4.32;;;14.90;43.90;;;;;;5017191;28;20029;-71
2021/04/26 04:37:59;;;;;;;12.95;4.53;;;14.90;43.80;;;;;;5016810;28;20034;-71
2021/04/26 04:40:25;;;;;;;8.90;4.07;;;14.90;44.00;;;;;;5016939;28;20056;-71
2021/04/26 04:42:51;;;;;;;7.88;4.05;;;14.90;43.50;;;;;;5016617;28;20057;-72
2021/04/26 04:45:19;;;;;;;12.60;4.13;;;14.90;43.10;;;;;;5016838;28;20053;-71
2021/04/26 04:47:45;;;;;;;8.52;3.78;;;14.80;43.50;;;;;;5016845;28;20061;-71
2021/04/26 04:50:12;;;;;;;11.88;3.80;;;14.70;43.80;;;;;;5016748;28;20057;-70
2021/04/26 04:52:38;;;;;;;9.43;3.60;;;14.70;45.30;;;;;;5016579;28;20025;-70
2021/04/26 04:55:04;;;;;;;6.72;3.33;;;14.60;45.00;;;;;;5016624;28;20080;-71
2021/04/26 04:57:30;;;;;;;14.77;4.10;;;14.60;44.90;;;;;;5016336;28;20541;-71
2021/04/26 04:59:56;;;;;;;5.43;3.25;;;14.60;44.30;;;;;;5016855;28;20113;-70
2021/04/26 05:02:21;;;;;;;7.22;3.78;;;14.60;44.70;;;;;;5015116;28;20065;-71
2021/04/26 05:04:47;;;;;;;7.40;3.50;;;14.60;45.00;;;;;;5016402;28;20386;-71
2021/04/26 05:07:13;;;;;;;10.40;3.40;;;14.70;44.50;;;;;;5016456;28;20393;-71
2021/04/26 05:09:38;;;;;;;14.70;4.40;;;14.70;43.00;;;;;;5016291;28;20450;-71
2021/04/26 05:12:04;;;;;;;8.73;3.75;;;14.80;42.50;;;;;;5016320;28;20104;-70
2021/04/26 05:14:31;;;;;;;10.57;4.50;;;14.80;42.00;;;;;;5016252;28;20099;-70
2021/04/26 05:16:57;;;;;;;6.97;3.50;;;14.80;42.30;;;;;;5015855;28;20034;-72
2021/04/26 05:19:23;;;;;;;10.35;3.45;;;14.80;42.50;;;;;;5015775;28;20113;-72
2021/04/26 05:21:49;;;;;;;9.95;3.38;;;14.80;42.10;;;;;;5016190;28;20388;-72
2021/04/26 05:24:15;;;;;;;9.07;3.30;;;14.80;42.80;;;;;;5016075;28;20092;-74
2021/04/26 05:26:41;;;;;;;18.45;3.90;;;14.80;42.80;;;;;;5016011;28;20033;-70
2021/04/26 05:29:07;;;;;;;7.45;3.42;;;14.70;42.90;;;;;;5015716;28;20030;-69
2021/04/26 05:31:32;;;;;;;5.82;2.90;;;14.70;43.50;;;;;;5015896;28;20355;-69
2021/04/26 05:33:58;;;;;;;8.38;3.22;;;14.80;44.10;;;;;;5015875;28;20037;-69
2021/04/26 05:36:24;;;;;;;13.45;3.45;;;14.80;43.70;;;;;;5015548;28;20518;-69
2021/04/26 05:38:50;;;;;;;6.82;3.00;;;14.80;43.90;;;;;;5015626;28;20050;-70
2021/04/26 05:41:15;;;;;;;13.38;3.30;;;14.80;44.00;;;;;;5015828;28;20022;-69
2021/04/26 05:43:41;;;;;;;7.07;3.50;;;14.80;43.40;;;;;;5015592;28;20026;-70
2021/04/26 05:46:07;;;;;;;7.85;3.13;;;14.80;42.50;;;;;;5015336;28;20080;-69
2021/04/26 05:48:32;;;;;;;22.50;3.70;;;14.80;43.10;;;;;;5015433;28;20029;-69
2021/04/26 05:50:58;;;;;;;12.82;3.60;;;14.90;42.10;;;;;;5015364;28;20097;-69
2021/04/26 05:53:24;;;;;;;29.45;4.32;;;14.80;44.90;;;;;;5015593;28;20129;-69
2021/04/26 05:55:51;;;;;;;6.95;3.20;;;14.80;44.20;;;;;;5015323;28;20022;-69
2021/04/26 05:58:16;;;;;;;7.88;2.92;;;14.80;44.00;;;;;;5014790;28;20041;-69
2021/04/26 06:00:42;;;;;;;12.90;3.22;;;14.80;43.30;;;;;;5015089;28;20026;-69
2021/04/26 06:03:08;;;;;;;17.20;3.47;;;14.80;43.30;;;;;;5014909;28;20080;-69
2021/04/26 06:05:34;;;;;;;24.02;4.55;;;14.80;42.50;;;;;;5014889;28;20083;-69
2021/04/26 06:08:00;;;;;;;7.35;3.13;;;14.80;42.30;;;;;;5014744;28;20037;-70
2021/04/26 06:10:27;;;;;;;5.68;3.00;;;14.80;42.00;;;;;;5014750;28;20022;-69
2021/04/26 06:12:52;;;;;;;12.60;3.63;;;14.90;42.10;;;;;;5012656;28;20425;-69
2021/04/26 06:15:20;;;;;;;6.30;3.38;;;14.90;42.10;;;;;;5012944;28;20037;-69
2021/04/26 06:17:46;;;;;;;8.57;3.75;;;14.90;42.10;;;;;;5014592;28;20041;-69
2021/04/26 06:20:12;;;;;;;5.50;3.50;;;14.90;42.90;;;;;;5014993;28;20378;-69
2021/04/26 06:22:38;;;;;;;8.70;3.55;;;14.90;43.40;;;;;;5015178;28;20030;-69
2021/04/26 06:25:04;;;;;;;7.35;3.58;;;14.90;41.40;;;;;;5014819;28;20018;-69
2021/04/26 06:27:29;;;;;;;16.10;3.30;;;14.90;42.10;;;;;;5014809;28;20033;-69
2021/04/26 06:29:55;;;;;;;13.85;3.85;;;15.00;42.50;;;;;;5014467;28;20493;-70
2021/04/26 06:32:23;;;;;;;11.50;3.17;;;15.00;42.80;;;;;;5014729;28;20380;-69
2021/04/26 06:34:50;;;;;;;8.68;3.15;;;15.00;43.00;;;;;;5014380;28;20056;-69
2021/04/26 06:37:16;;;;;;;9.18;3.88;;;15.10;42.50;;;;;;5014522;28;20034;-69
2021/04/26 06:39:41;;;;;;;12.40;3.67;;;15.10;44.00;;;;;;5014662;28;20375;-70
2021/04/26 06:42:07;;;;;;;13.85;3.40;;;15.20;43.20;;;;;;5014721;28;20053;-69
2021/04/26 06:44:33;;;;;;;11.00;3.35;;;15.20;42.90;;;;;;5014537;28;20061;-69
2021/04/26 06:46:58;;;;;;;10.23;3.47;;;15.30;42.40;;;;;;5014285;28;20032;-69
2021/04/26 06:49:25;;;;;;;4.95;2.80;;;15.40;42.20;;;;;;5014267;28;20026;-69
2021/04/26 06:51:51;;;;;;;9.65;3.08;;;15.40;41.50;;;;;;5014831;28;20101;-69
2021/04/26 06:54:16;;;;;;;9.98;3.17;;;15.40;40.30;;;;;;5014266;28;20121;-69
2021/04/26 06:56:42;;;;;;;7.82;2.97;;;15.50;40.50;;;;;;5014542;28;20025;-69
2021/04/26 06:59:09;;;;;;;6.07;3.05;;;15.50;40.00;;;;;;5013594;28;20394;-69
2021/04/26 07:01:34;;;;;;;12.73;3.38;;;15.60;39.50;;;;;;5013903;28;20029;-69
2021/04/26 07:04:00;;;;;;;7.22;3.10;;;15.60;39.80;;;;;;5013376;28;20030;-69
2021/04/26 07:06:26;;;;;;;15.23;3.10;;;15.60;39.40;;;;;;5013190;28;20113;-69
2021/04/26 07:08:51;;;;;;;12.20;3.30;;;15.60;40.00;;;;;;5013249;28;20382;-69
2021/04/26 07:11:17;;;;;;;11.02;3.25;;;15.60;40.30;;;;;;5013547;28;20022;-69
2021/04/26 07:13:43;;;;;;;12.20;2.92;;;15.50;39.60;;;;;;5013767;28;20041;-69
2021/04/26 07:16:09;;;;;;;6.50;3.13;;;15.50;39.40;;;;;;5013815;28;20026;-70
2021/04/26 07:18:34;;;;;;;8.25;3.03;;;15.50;39.50;;;;;;5013843;28;20038;-69
2021/04/26 07:21:00;;;;;;;6.20;3.20;;;15.40;39.50;;;;;;5013736;28;20026;-69
2021/04/26 07:23:26;;;;;;;5.78;3.28;;;15.40;39.90;;;;;;5013745;28;20033;-71
2021/04/26 07:25:52;;;;;;;11.05;3.00;;;15.30;40.20;;;;;;5013550;28;20024;-71
2021/04/26 07:28:18;;;;;;;5.88;2.80;;;15.30;40.30;;;;;;5012575;28;20441;-71
2021/04/26 07:30:43;;;;;;;5.68;3.08;;;15.20;42.20;;;;;;5013596;28;20030;-71
2021/04/26 07:33:09;;;;;;;9.43;2.78;;;15.20;40.20;;;;;;5013463;28;20080;-70
2021/04/26 07:35:35;;;;;;;6.80;3.22;;;15.20;40.60;;;;;;5013753;28;20435;-71
2021/04/26 07:38:00;;;;;;;5.25;2.60;;;15.20;40.50;;;;;;5013591;28;20053;-70
2021/04/26 07:40:26;;;;;;;6.50;3.20;;;15.20;40.60;;;;;;5011796;28;20116;-71
2021/04/26 07:42:52;;;;;;;10.43;2.78;;;15.20;39.70;;;;;;5013079;28;20030;-70
2021/04/26 07:45:20;;;;;;;8.88;2.60;;;15.30;39.90;;;;;;5013658;28;20031;-70
2021/04/26 07:47:47;;;;;;;5.57;2.97;;;;;;;;;;5013452;28;20033;-70
2021/04/26 07:50:13;;;;;;;7.25;2.92;;;15.30;40.00;;;;;;5013126;28;20057;-70
2021/04/26 07:52:39;;;;;;;9.40;2.90;;;15.30;40.90;;;;;;5013426;28;20065;-70
2021/04/26 07:55:05;;;;;;;15.65;3.40;;;15.30;40.40;;;;;;5013270;28;20093;-71
2021/04/26 07:57:32;;;;;;;14.48;3.85;;;15.30;40.70;;;;;;5012759;28;20042;-69
2021/04/26 07:59:58;;;;;;;7.95;2.92;;;15.40;40.40;;;;;;5013432;28;20058;-70
2021/04/26 08:02:24;;;;;;;6.45;2.67;;;15.40;40.00;;;;;;5013399;28;20026;-70
2021/04/26 08:04:50;;;;;;;9.38;2.95;;;15.40;40.20;;;;;;5013313;28;20036;-70
2021/04/26 08:07:15;;;;;;;6.97;3.28;;;15.40;40.10;;;;;;5013405;28;20030;-70
2021/04/26 08:09:41;;;;;;;9.82;2.90;;;15.40;40.20;;;;;;5013311;28;20109;-70
2021/04/26 08:12:07;;;;;;;8.77;3.10;;;15.40;40.40;;;;;;5013092;28;20030;-70
2021/04/26 08:14:33;;;;;;;5.57;3.10;;;15.40;40.90;;;;;;5012582;28;20449;-71
2021/04/26 08:16:59;;;;;;;11.05;3.65;;;15.40;41.00;;;;;;5013016;28;20084;-71
2021/04/26 08:19:24;;;;;;;7.25;2.83;;;15.40;40.50;;;;;;5013543;28;20066;-70
2021/04/26 08:21:50;;;;;;;7.50;3.00;;;15.40;39.70;;;;;;5013573;28;20454;-70
2021/04/26 08:24:16;;;;;;;6.43;3.33;;;15.40;40.20;;;;;;5013199;28;20077;-70
2021/04/26 08:26:43;;;;;;;3.90;2.60;;;15.40;40.30;;;;;;5012879;28;20048;-71
2021/04/26 08:29:09;;;;;;;10.93;3.20;;;15.40;40.80;;;;;;5012956;28;20393;-70
2021/04/26 08:31:35;;;;;;;8.82;3.20;;;15.40;41.20;;;;;;5013177;28;20022;-70
2021/04/26 08:34:01;;;;;;;9.05;3.40;;;15.50;41.20;;;;;;5012967;28;20022;-70
2021/04/26 08:36:27;;;;;;;7.80;3.00;;;15.40;41.20;;;;;;5012836;28;20028;-69
2021/04/26 08:38:52;;;;;;;7.35;2.83;;;15.50;40.60;;;;;;5012356;28;20442;-70
2021/04/26 08:41:18;;;;;;;5.88;2.35;;;15.50;41.20;;;;;;5012778;28;20030;-70
2021/04/26 08:43:46;;;;;;;7.90;3.10;;;15.50;40.60;;;;;;5012886;28;20026;-70
2021/04/26 08:46:12;;;;;;;9.27;3.03;;;15.50;40.90;;;;;;5013244;28;20037;-70
2021/04/26 08:48:38;;;;;;;7.90;2.75;;;15.50;40.80;;;;;;5013155;28;20382;-70
2021/04/26 08:51:05;;;;;;;6.47;3.03;;;15.50;40.40;;;;;;5012557;28;20108;-70
2021/04/26 08:53:31;;;;;;;4.72;2.90;;;15.50;40.40;;;;;;5015340;28;20156;-70
2021/04/26 08:55:57;;;;;;;11.27;2.60;;;15.50;41.00;;;;;;5016786;28;20034;-70
2021/04/26 08:58:23;;;;;;;14.98;3.05;;;15.60;40.70;;;;;;5016307;28;20044;-70
2021/04/26 09:00:49;;;;;;;10.27;2.92;;;15.60;40.30;;;;;;5016260;28;20026;-70
2021/04/26 09:03:15;;;;;;;9.40;2.55;;;15.60;40.20;;;;;;5016439;28;20053;-70
2021/04/26 09:05:44;;;;;;;6.15;3.40;;;15.70;40.60;;;;;;5016530;28;20026;-69
2021/04/26 09:08:12;;;;;;;6.63;3.05;;;15.80;40.00;;;;;;5014935;28;20103;-70
2021/04/26 09:10:44;;;;;;;6.05;2.80;;;15.80;39.40;;;;;;5016390;28;20029;-69
2021/04/26 09:13:41;;;;;;;6.85;2.95;;;15.80;39.90;;;;;;5016389;28;20030;-69
2021/04/26 09:16:12;;;;;;;4.90;2.78;;;15.80;39.50;;;;;;5015602;28;20102;-70
2021/04/26 09:18:52;;;;;;;7.07;2.80;;;15.80;39.70;;;;;;5015762;28;20034;-69
2021/04/26 09:21:25;;;;;;;7.07;2.67;;;15.80;40.30;;;;;;5015916;28;20120;-69
2021/04/26 09:24:09;;;;;;;9.55;3.15;;;15.80;40.20;;;;;;5014713;28;20045;-70
2021/04/26 09:26:35;;;;;;;5.90;2.65;;;15.80;38.10;;;;;;5015836;28;20029;-69
2021/04/26 09:29:10;;;;;;;7.97;2.88;;;15.80;39.60;;;;;;5015804;28;20042;-70
2021/04/26 09:31:35;;;;;;;7.25;2.75;;;15.80;39.40;;;;;;5015880;28;20470;-69
2021/04/26 09:34:01;;;;;;;5.85;2.70;;;15.80;39.80;;;;;;5015943;28;20026;-70
2021/04/26 09:36:32;;;;;;;7.00;2.80;;;15.80;40.20;;;;;;5015908;28;20030;-69
2021/04/26 09:39:00;;;;;;;6.07;2.72;;;15.80;39.40;;;;;;5015300;28;20525;-69
2021/04/26 09:41:31;;;;;;;8.02;2.78;;;15.80;39.80;;;;;;5014980;28;20036;-70
2021/04/26 09:43:59;;;;;;;11.63;2.72;;;15.80;39.20;;;;;;5015066;28;20018;-69
2021/04/26 09:46:36;;;;;;;5.32;2.72;;;15.70;39.00;;;;;;5015149;28;20446;-70
2021/04/26 09:49:08;;;;;;;12.80;2.70;;;15.70;38.60;;;;;;5015222;28;20018;-70
2021/04/26 09:51:33;;;;;;;7.60;2.97;;;15.60;39.00;;;;;;5014839;28;20501;-70
2021/04/26 09:53:59;;;;;;;9.98;2.85;;;15.60;39.70;;;;;;5014675;28;20018;-69
2021/04/26 09:56:30;;;;;;;8.18;2.88;;;15.60;39.50;;;;;;5015469;28;20036;-73
2021/04/26 09:58:59;;;;;;;7.47;3.28;;;15.50;39.10;;;;;;5015216;28;20032;-72
2021/04/26 10:01:25;;;;;;;7.65;3.08;;;15.50;38.90;;;;;;5015471;28;20026;-72
2021/04/26 10:03:52;;;;;;;10.70;2.95;;;15.50;39.10;;;;;;5014731;28;20089;-72
2021/04/26 10:06:20;;;;;;;5.95;3.10;;;15.50;39.60;;;;;;5015173;28;20382;-72
2021/04/26 10:08:51;;;;;;;8.35;3.55;;;15.50;40.20;;;;;;5015094;28;20541;-72
2021/04/26 10:11:18;;;;;;;13.63;3.90;;;15.50;40.30;;;;;;5015028;28;20049;-70
2021/04/26 10:13:46;;;;;;;9.15;2.95;;;15.50;41.80;;;;;;5014742;28;20541;-72
2021/04/26 10:16:36;;;;;;;5.95;3.10;;;15.50;40.60;;;;;;5013442;28;20022;-70
2021/04/26 10:19:05;;;;;;;8.32;3.17;;;15.50;41.80;;;;;;5008066;28;20046;-72
2021/04/26 10:21:33;;;;;;;9.43;3.17;;;15.50;41.60;;;;;;5014744;28;20037;-72
2021/04/26 10:24:12;;;;;;;8.88;3.10;;;15.40;41.90;;;;;;5014517;28;20062;-72
2021/04/26 10:26:50;;;;;;;6.80;3.17;;;15.40;42.50;;;;;;5015271;28;20025;-73
2021/04/26 10:29:27;;;;;;;6.35;2.92;;;15.30;42.60;;;;;;5014466;28;20095;-72
2021/04/26 10:32:00;;;;;;;6.13;2.80;;;15.30;42.80;;;;;;5014717;28;20112;-73
2021/04/26 10:34:30;;;;;;;9.13;2.80;;;15.30;43.00;;;;;;5014709;28;20045;-73
2021/04/26 10:37:00;;;;;;;5.95;3.28;;;15.30;43.30;;;;;;5014357;28;20113;-72
2021/04/26 10:39:27;;;;;;;4.57;2.60;;;15.30;43.70;;;;;;5014148;28;20092;-73
2021/04/26 10:41:58;;;;;;;6.00;3.38;;;15.30;44.30;;;;;;5014360;28;20025;-72
2021/04/26 10:44:38;;;;;;;8.30;3.53;;;15.30;43.30;;;;;;5014156;28;20036;-72
2021/04/26 10:47:23;;;;;;;9.65;3.47;;;15.30;43.70;;;;;;5014338;28;20086;-71
2021/04/26 10:50:09;;;;;;;6.75;3.45;;;15.40;44.60;;;;;;5014169;28;20022;-72
2021/04/26 10:52:38;;;;;;;7.55;3.25;;;15.40;45.30;;;;;;5014653;28;20038;-71
2021/04/26 10:55:05;;;;;;;9.50;3.55;;;15.50;44.80;;;;;;5012774;28;20029;-72
2021/04/26 10:57:40;;;;;;;6.57;3.33;;;15.50;44.10;;;;;;5013843;28;20394;-72
2021/04/26 11:00:26;;;;;;;7.90;3.30;;;15.50;44.50;;;;;;5014372;28;20018;-72
2021/04/26 11:03:11;;;;;;;5.25;2.90;;;15.60;44.40;;;;;;5014218;28;20022;-71
2021/04/26 11:05:40;;;;;;;10.05;3.00;;;15.70;45.30;;;;;;5012598;28;20032;-72
2021/04/26 11:08:31;;;;;;;8.45;3.70;;;15.80;45.10;;;;;;5013919;28;20018;-72
2021/04/26 11:11:29;;;;;;;6.47;3.13;;;15.80;44.90;;;;;;5011299;28;20037;-71
2021/04/26 11:13:52;;;;;;;8.10;3.20;;;15.90;44.30;;;;;;5013210;28;20437;-73
2021/04/26 11:16:27;;;;;;;9.95;3.00;;;16.00;44.90;;;;;;5013884;28;20066;-72
2021/04/26 11:18:59;;;;;;;5.63;3.70;;;16.00;45.20;;;;;;5013645;28;20057;-72
2021/04/26 11:21:48;;;;;;;4.82;2.95;;;16.10;45.20;;;;;;5013861;28;20612;-72
2021/04/26 11:24:24;;;;;;;4.75;2.70;;;16.20;44.90;;;;;;5009879;28;20042;-72
2021/04/26 11:27:08;;;;;;;10.98;3.15;;;16.20;44.60;;;;;;5013622;28;20076;-70
2021/04/26 11:29:34;;;;;;;7.70;3.03;;;16.30;44.80;;;;;;5013729;28;20058;-72
2021/04/26 11:32:04;;;;;;;6.28;3.03;;;16.30;44.20;;;;;;5013738;28;20026;-72
2021/04/26 11:34:49;;;;;;;11.23;3.40;;;16.40;45.40;;;;;;5013385;28;20026;-71
2021/04/26 11:37:19;;;;;;;8.85;2.83;;;16.40;45.00;;;;;;5013541;28;20033;-73
2021/04/26 11:39:46;;;;;;;6.25;3.25;;;16.40;45.00;;;;;;5013429;28;20461;-72
2021/04/26 11:42:19;;;;;;;6.90;3.08;;;16.50;44.30;;;;;;5013450;28;20498;-72
2021/04/26 11:44:45;;;;;;;5.57;2.90;;;16.50;44.00;;;;;;5013275;28;20045;-72
2021/04/26 11:47:15;;;;;;;7.40;2.95;;;16.50;44.10;;;;;;5012949;28;20064;-72
2021/04/26 11:49:43;;;;;;;6.60;2.90;;;16.60;44.40;;;;;;5013287;28;20053;-72
2021/04/26 11:52:19;;;;;;;8.40;3.22;;;16.60;43.40;;;;;;5013379;28;20087;-72
2021/04/26 11:54:46;;;;;;;6.10;3.35;;;16.60;44.10;;;;;;5013343;28;20141;-72
2021/04/26 11:57:22;;;;;;;6.93;2.95;;;16.60;44.00;;;;;;5013380;28;20065;-73
2021/04/26 11:59:58;;;;;;;10.55;2.88;;;16.50;42.60;;;;;;5013355;28;20022;-71
2021/04/26 12:02:41;;;;;;;10.52;3.20;;;16.50;45.80;;;;;;5013528;28;20037;-72
2021/04/26 12:05:16;;;;;;;7.70;3.08;;;16.50;44.40;;;;;;5013240;28;20018;-72
2021/04/26 12:07:42;;;;;;;5.68;2.80;;;16.50;46.10;;;;;;5013120;28;20037;-73
2021/04/26 12:10:12;;;;;;;6.57;3.28;;;16.60;46.60;;;;;;5013145;28;20022;-72
2021/04/26 12:12:39;;;;;;;8.07;3.10;;;16.60;45.80;;;;;;5013494;28;20489;-72
2021/04/26 12:15:11;;;;;;;10.10;3.67;;;16.70;45.90;;;;;;5012850;28;20386;-72
2021/04/26 12:17:43;;;;;;;10.55;3.65;;;16.70;45.30;;;;;;5012902;28;20046;-71
2021/04/26 12:20:27;;;;;;;6.30;3.03;;;16.80;45.20;;;;;;5013210;28;20465;-72
2021/04/26 12:22:57;;;;;;;5.45;3.05;;;16.80;44.20;;;;;;5012785;28;20053;-71
2021/04/26 12:25:25;;;;;;;6.35;3.08;;;16.90;45.30;;;;;;5012725;28;20022;-71
2021/04/26 12:28:03;;;;;;;8.68;3.03;;;16.90;44.20;;;;;;5014180;28;20528;-72
2021/04/26 12:30:34;;;;;;;9.85;3.25;;;17.00;44.20;;;;;;5017096;28;20054;-72
2021/04/26 12:32:59;;;;;;;8.70;3.10;;;17.00;45.00;;;;;;5016899;28;20112;-72
2021/04/26 12:35:28;;;;;;;9.43;3.10;;;17.00;44.80;;;;;;5016410;28;20053;-73
2021/04/26 12:37:56;;;;;;;4.45;2.72;;;17.00;44.30;;;;;;5016440;28;20038;-72
2021/04/26 12:40:28;;;;;;;9.63;3.65;;;16.90;42.40;;;;;;5016501;28;20074;-72
2021/04/26 12:42:57;;;;;;;4.40;3.15;;;16.90;41.80;;;;;;5016909;28;20022;-72
2021/04/26 12:45:28;;;;;;;7.85;2.92;;;16.80;42.60;;;;;;5016559;28;20052;-72
2021/04/26 12:48:04;;;;;;;7.70;3.00;;;16.80;42.50;;;;;;5016333;28;20106;-72
2021/04/26 12:50:47;;;;;;;9.23;3.38;;;16.80;42.10;;;;;;5016500;28;20053;-72
2021/04/26 12:53:17;;;;;;;7.60;3.10;;;16.80;41.80;;;;;;5016356;28;20026;-72